KBRG/BRG METAR and TAF weather

Enter ICAO airport designator
Station Type Date Time Source
KBRG METAR 2020/01/23 18:35 UTC NOAA

KBRG 231835Z AUTO 00000KT 10SM CLR 07/M03 A3021 RMK AO2 T00721028


Station Type Date Time Source
KBRG Decoded METAR 2020/01/23 18:35 UTC NOAA

Station name not available
Jan 23, 2020 - 01:35 PM EST / 2020.01.23 1835 UTC
Wind: Calm:0
Visibility: 10 mile(s):0
Sky conditions: clear
Temperature: 45.0 F (7.2 C)
Dew Point: 27.0 F (-2.8 C)
Relative Humidity: 48%
Pressure (altimeter): 30.21 in. Hg (1023 hPa)
ob: KBRG 231835Z AUTO 00000KT 10SM CLR 07/M03 A3021 RMK AO2 T00721028
cycle: 18

Station Type Date Time Source
KBRG TAF 2012/07/03 12:12 UTC NOAA

TAF SKBRG 031000Z 031212 VRB02KT 9999 FEW017 SCT080
TEMPO 0312/0317 11005KT VCTS - DZRAFEW015CB BKN070
TEMPO 0318/0323 TSRA FEW017CB BKN070
TEMPO 0400/0402 VCTS FEW020CB
TEMPO 0402/0406 -DZ SCT015CB
TEMPO 0408/0412 00000KT 5000 BCFG FEW005 TX23/0319Z TN10/0411Z

Example: see airport list